Time;durP1;ratioP1;P1;durP2;ratioP2;P2;SDS_P1;SDS_P2;PMS_P1;PMS_P2;Temp;Humidity;BMP_temperature;BMP_pressure;BME280_temperature;BME280_humidity;BME280_pressure;Samples;Min_cycle;Max_cycle;Signal;HPM_P1;HPM_P2
2022/01/04 00:00:53;;;;;;;29.35;10.50;;;19.20;66.00;;;;;;10463166;28;20095;-61
2022/01/04 00:05:59;;;;;;;25.92;10.05;;;19.10;65.90;;;;;;10461943;28;20092;-61
2022/01/04 00:11:19;;;;;;;20.42;9.80;;;19.10;65.90;;;;;;10461393;28;20099;-60
2022/01/04 00:16:24;;;;;;;20.70;8.95;;;19.10;65.90;;;;;;10461472;28;20048;-61
2022/01/04 00:21:28;;;;;;;20.02;9.32;;;19.10;65.80;;;;;;10460962;28;20500;-61
2022/01/04 00:26:33;;;;;;;16.55;8.57;;;19.10;65.80;;;;;;10460887;28;20063;-61
2022/01/04 00:31:39;;;;;;;18.35;9.27;;;19.10;65.90;;;;;;10460412;28;20056;-62
2022/01/04 00:36:44;;;;;;;14.27;6.32;;;19.00;65.90;;;;;;10460551;28;20102;-63
2022/01/04 00:41:49;;;;;;;13.38;5.43;;;19.10;65.60;;;;;;10459674;28;20060;-62
2022/01/04 00:46:54;;;;;;;11.15;6.00;;;19.10;65.50;;;;;;10460004;28;20045;-62
2022/01/04 00:52:01;;;;;;;12.23;4.28;;;19.00;65.50;;;;;;10459949;28;20053;-62
2022/01/04 00:57:05;;;;;;;8.52;3.65;;;19.10;65.60;;;;;;10459843;28;20114;-63
2022/01/04 01:02:10;;;;;;;8.60;3.13;;;19.00;65.40;;;;;;10459559;28;20041;-62
2022/01/04 01:07:15;;;;;;;5.78;2.72;;;19.00;65.30;;;;;;10459195;28;20045;-62
2022/01/04 01:12:20;;;;;;;8.00;2.15;;;19.00;65.40;;;;;;10459154;28;20053;-63
2022/01/04 01:17:25;;;;;;;5.35;2.53;;;19.00;65.50;;;;;;10458917;28;20053;-63
2022/01/04 01:22:30;;;;;;;4.20;2.25;;;18.90;65.50;;;;;;10458523;28;20064;-63
2022/01/04 01:27:35;;;;;;;7.05;2.92;;;18.90;65.50;;;;;;10458190;28;20049;-63
2022/01/04 01:32:41;;;;;;;7.22;2.72;;;18.90;65.50;;;;;;10458177;28;20052;-63
2022/01/04 01:37:46;;;;;;;6.85;2.90;;;18.90;65.60;;;;;;10457905;28;20053;-63
2022/01/04 01:42:51;;;;;;;6.28;3.08;;;18.90;65.70;;;;;;10458520;28;20056;-62
2022/01/04 01:48:00;;;;;;;12.17;2.83;;;18.90;65.60;;;;;;10457977;28;20551;-62
2022/01/04 01:53:05;;;;;;;8.57;3.40;;;18.80;65.60;;;;;;10456593;28;20809;-63
2022/01/04 01:58:10;;;;;;;6.35;2.90;;;18.80;65.70;;;;;;10457148;28;20049;-62
2022/01/04 02:03:15;;;;;;;6.65;2.90;;;18.90;65.70;;;;;;10457230;28;20052;-62
2022/01/04 02:08:21;;;;;;;5.47;3.05;;;18.80;65.70;;;;;;10457336;28;20053;-62
2022/01/04 02:13:27;;;;;;;5.70;2.70;;;18.80;65.70;;;;;;10456775;28;20409;-62
2022/01/04 02:18:32;;;;;;;5.25;2.38;;;18.90;65.50;;;;;;10457575;28;20122;-62
2022/01/04 02:23:37;;;;;;;5.95;2.22;;;18.80;65.50;;;;;;10456666;28;20045;-63
2022/01/04 02:28:42;;;;;;;7.13;2.80;;;18.80;65.60;;;;;;10456443;28;20053;-62
2022/01/04 02:33:47;;;;;;;6.97;2.42;;;18.80;65.70;;;;;;10456253;28;20053;-62
2022/01/04 02:38:54;;;;;;;7.85;2.47;;;18.80;65.70;;;;;;10456435;28;20036;-62
2022/01/04 02:44:00;;;;;;;5.03;2.50;;;18.80;65.70;;;;;;10455711;28;20111;-62
2022/01/04 02:49:05;;;;;;;9.73;2.92;;;18.80;65.80;;;;;;10438190;28;20102;-62
2022/01/04 02:54:09;;;;;;;9.00;3.10;;;18.70;65.70;;;;;;10455145;28;20048;-60
2022/01/04 02:59:14;;;;;;;7.68;2.42;;;18.70;65.70;;;;;;10455693;28;20044;-60
2022/01/04 03:04:20;;;;;;;5.15;2.25;;;18.70;65.70;;;;;;10463789;28;20041;-61
2022/01/04 03:09:27;;;;;;;8.35;2.53;;;18.70;65.70;;;;;;10464099;28;20098;-62
2022/01/04 03:14:32;;;;;;;5.78;2.17;;;18.70;65.70;;;;;;10463832;28;20049;-62
2022/01/04 03:19:37;;;;;;;9.18;2.63;;;18.60;65.70;;;;;;10463338;28;20386;-62
2022/01/04 03:24:42;;;;;;;5.50;2.33;;;18.60;65.60;;;;;;10463137;28;20405;-62
2022/01/04 03:29:47;;;;;;;7.65;2.50;;;18.60;65.70;;;;;;10462908;28;20053;-62
2022/01/04 03:34:52;;;;;;;5.32;2.45;;;18.60;65.70;;;;;;10462800;28;20480;-62
2022/01/04 03:39:57;;;;;;;7.78;2.53;;;18.60;65.70;;;;;;10462420;28;20143;-62
2022/01/04 03:45:02;;;;;;;9.25;2.83;;;18.60;65.80;;;;;;10462088;28;20119;-62
2022/01/04 03:50:08;;;;;;;5.88;2.45;;;18.60;66.00;;;;;;10462158;28;20071;-62
2022/01/04 03:55:12;;;;;;;6.72;3.00;;;18.60;66.10;;;;;;10461980;28;20045;-62
2022/01/04 04:00:17;;;;;;;10.18;2.83;;;18.60;66.00;;;;;;10461955;28;20053;-62
2022/01/04 04:05:22;;;;;;;8.48;3.17;;;18.50;66.10;;;;;;10461623;28;20052;-62
2022/01/04 04:10:27;;;;;;;7.60;2.97;;;18.60;66.20;;;;;;10461660;28;20052;-62
2022/01/04 04:15:32;;;;;;;13.60;2.70;;;18.60;66.30;;;;;;10460421;28;20049;-62
2022/01/04 04:20:38;;;;;;;4.75;2.97;;;18.60;66.30;;;;;;10461738;28;20053;-62
2022/01/04 04:25:43;;;;;;;7.03;2.35;;;18.70;66.30;;;;;;10460723;28;20409;-63
2022/01/04 04:30:48;;;;;;;5.80;2.58;;;18.80;66.00;;;;;;10460480;28;20053;-62
2022/01/04 04:35:53;;;;;;;7.20;2.55;;;19.00;65.90;;;;;;10460975;28;20409;-61
2022/01/04 04:40:58;;;;;;;4.97;2.20;;;19.10;65.70;;;;;;10460595;28;20061;-62
2022/01/04 04:46:03;;;;;;;5.97;2.60;;;19.20;65.50;;;;;;10459649;28;20045;-62
2022/01/04 04:51:08;;;;;;;9.00;2.42;;;19.30;65.40;;;;;;10459842;28;20452;-62
2022/01/04 04:56:12;;;;;;;6.05;2.47;;;19.50;65.20;;;;;;10459633;28;20111;-62
2022/01/04 05:01:17;;;;;;;7.13;2.50;;;19.50;65.00;;;;;;10459756;28;20401;-62
2022/01/04 05:06:23;;;;;;;7.80;2.42;;;19.60;65.00;;;;;;10459159;28;20073;-62
2022/01/04 05:11:27;;;;;;;8.35;2.20;;;19.70;64.80;;;;;;10458841;28;20463;-62
2022/01/04 05:16:32;;;;;;;5.00;2.53;;;19.80;64.70;;;;;;10458752;28;20056;-62
2022/01/04 05:21:37;;;;;;;6.13;2.20;;;19.90;64.40;;;;;;10459087;28;20053;-62
2022/01/04 05:26:42;;;;;;;4.70;2.38;;;19.90;64.40;;;;;;10458492;28;20049;-63
2022/01/04 05:31:47;;;;;;;6.18;2.15;;;20.00;64.30;;;;;;10458744;28;20444;-62
2022/01/04 05:36:52;;;;;;;7.70;2.28;;;20.10;64.10;;;;;;10458071;28;20452;-62
2022/01/04 05:41:57;;;;;;;14.43;2.20;;;20.20;64.10;;;;;;10457931;28;20075;-62
2022/01/04 05:47:02;;;;;;;7.50;2.40;;;20.20;64.10;;;;;;10457591;28;20107;-61
2022/01/04 05:52:07;;;;;;;9.13;2.35;;;20.30;63.90;;;;;;10457745;28;20099;-62
2022/01/04 05:57:12;;;;;;;5.82;2.20;;;20.40;63.80;;;;;;10457180;28;20049;-62
2022/01/04 06:02:17;;;;;;;7.88;2.20;;;20.40;63.70;;;;;;10457706;28;20547;-63
2022/01/04 06:07:22;;;;;;;29.17;2.90;;;20.50;63.70;;;;;;10456795;28;20052;-62
2022/01/04 06:17:41;;;;;;;9.75;2.25;;;20.60;63.50;;;;;;10440206;28;20486;-62
2022/01/04 06:22:46;;;;;;;27.05;3.10;;;20.60;63.40;;;;;;10456692;28;20045;-61
2022/01/04 06:27:53;;;;;;;28.77;3.30;;;20.60;64.00;;;;;;10456255;28;20099;-61
